Du har inga inställningar för hoppväder.nu

Hoppväder.nu

Senast uppdaterat 01:07

UTC-tid

2020-07-06 kl. 23:07


Sol och måne

Solen går upp 4:01 och går ner 23:09 (beräknade cirkatider)
Nästa fullmåne blir om 27 dagar (2020-08-03)

METAR

ESOE (Örebro)
(17 minuter sedan)
ESOE 062250Z AUTO 28008KT 9999 FEW140/// SCT170/// 12/09 Q0997=



ESOK (Karlstad)
(17 minuter sedan)
ESOK 062250Z AUTO 29007KT 9999 R03/P1500N R21///// ////// 11/08 Q0999=



ESGR (Skövde)
(17 minuter sedan)
ESGR 062250Z AUTO /////KT 9999 BKN150/// 11/10 Q1000=



ESSD (Borlänge)
(17 minuter sedan)
ESSD 062250Z AUTO 29010KT 9999 OVC036/// 11/07 Q0994=



ESOW (Västerås)
(17 minuter sedan)
ESOW 062250Z AUTO 28007KT 250V320 9999 FEW044/// BKN057/// 13/09 Q0995=



TAF

ESOE (Örebro)
(337 minuter sedan)
ESOE 061730Z 0618/0622 21010KT 9999 BKN020 PROB40 0618/0621 4000 SHRA BKN014 BKN030CB BECMG 0618/0620 27008KT=



ESOK (Karlstad)
ESOK



ESGR (Skövde)
ESGR



ESSD (Borlänge)
ESSD



ESOW (Västerås)
ESOW





Kodnycklar till TAF och METAR






LHP

(Örebro är område se32g i Delområde 4)

Prognos är inte uppdaterad






Preliminär prognos